createdAt,value
2023-02-11T00:01:26.719Z,23.20
2023-02-11T00:03:55.310Z,21.47
2023-02-11T00:06:24.086Z,28.37
2023-02-11T00:08:52.064Z,28.17
2023-02-11T00:11:25.470Z,25.50
2023-02-11T00:13:53.868Z,30.33
2023-02-11T00:16:22.880Z,31.63
2023-02-11T00:18:54.124Z,27.30
2023-02-11T00:21:25.470Z,32.20
2023-02-11T00:23:54.875Z,29.83
2023-02-11T00:26:27.902Z,24.93
2023-02-11T00:28:56.980Z,32.50
2023-02-11T00:31:26.819Z,33.10
2023-02-11T00:33:55.921Z,36.07
2023-02-11T00:36:27.562Z,38.77
2023-02-11T00:38:56.992Z,41.83
2023-02-11T00:41:26.972Z,52.07
2023-02-11T00:43:55.608Z,44.00
2023-02-11T00:46:23.795Z,38.90
2023-02-11T00:48:54.987Z,36.90
2023-02-11T00:51:23.314Z,38.27
2023-02-11T00:53:51.651Z,46.20
2023-02-11T00:56:19.773Z,38.23
2023-02-11T00:58:49.284Z,40.50
2023-02-11T01:01:17.454Z,43.73
2023-02-11T01:03:45.675Z,40.57
2023-02-11T01:06:13.982Z,41.80
2023-02-11T01:08:43.824Z,32.83
2023-02-11T01:11:16.536Z,40.77
2023-02-11T01:13:45.104Z,43.07
2023-02-11T01:16:15.786Z,38.03
2023-02-11T01:18:44.595Z,44.17
2023-02-11T01:21:13.063Z,36.43
2023-02-11T01:23:41.147Z,40.93
2023-02-11T01:26:09.130Z,37.53
2023-02-11T01:28:38.017Z,44.77
2023-02-11T01:31:06.379Z,38.67
2023-02-11T01:33:35.891Z,45.53
2023-02-11T01:36:09.474Z,41.57
2023-02-11T01:38:44.206Z,39.50
2023-02-11T01:41:15.581Z,46.83
2023-02-11T01:43:47.402Z,48.90
2023-02-11T01:46:38.957Z,36.20
2023-02-11T01:49:14.612Z,51.87
2023-02-11T01:51:47.895Z,48.27
2023-02-11T01:54:38.936Z,40.00
2023-02-11T01:57:25.925Z,46.07
2023-02-11T02:00:12.901Z,47.00
2023-02-11T02:02:49.065Z,47.77
2023-02-11T02:05:27.266Z,39.17
2023-02-11T02:08:03.930Z,43.03
2023-02-11T02:10:35.572Z,36.27
2023-02-11T02:13:03.674Z,40.20
2023-02-11T02:15:35.043Z,39.13
2023-02-11T02:18:14.826Z,40.27
2023-02-11T02:21:49.405Z,34.57
2023-02-11T02:24:37.216Z,45.73
2023-02-11T02:27:35.471Z,37.67
2023-02-11T02:30:30.939Z,37.13
2023-02-11T02:33:22.765Z,45.70
2023-02-11T02:36:08.882Z,42.37
2023-02-11T02:38:43.847Z,40.80
2023-02-11T02:41:15.576Z,45.53
2023-02-11T02:43:46.537Z,47.87
2023-02-11T02:46:19.624Z,42.27
2023-02-11T02:48:50.606Z,41.43
2023-02-11T02:51:44.660Z,47.83
2023-02-11T02:54:39.810Z,42.53
2023-02-11T02:57:21.374Z,34.70
2023-02-11T03:00:05.274Z,33.67
2023-02-11T03:02:41.399Z,41.50
2023-02-11T03:05:18.696Z,44.87
2023-02-11T03:07:55.645Z,41.97
2023-02-11T03:10:29.121Z,38.57
2023-02-11T03:12:58.629Z,31.87
2023-02-11T03:15:31.591Z,40.40
2023-02-11T03:18:01.664Z,32.57
2023-02-11T03:20:34.389Z,33.83
2023-02-11T03:23:08.841Z,35.17
2023-02-11T03:25:42.689Z,39.60
2023-02-11T03:28:18.153Z,43.53
2023-02-11T03:30:53.471Z,34.50
2023-02-11T03:33:26.470Z,43.47
2023-02-11T03:36:00.638Z,35.03
2023-02-11T03:38:34.841Z,38.43
2023-02-11T03:41:06.116Z,34.40
2023-02-11T03:43:39.026Z,34.73
2023-02-11T03:46:08.407Z,40.40
2023-02-11T03:48:40.140Z,37.53
2023-02-11T03:51:12.203Z,36.20
2023-02-11T03:53:44.415Z,46.03
2023-02-11T03:56:17.446Z,47.97
2023-02-11T03:58:46.109Z,35.63
2023-02-11T04:01:14.210Z,43.07
2023-02-11T04:03:42.629Z,31.47
2023-02-11T04:06:12.120Z,33.30
2023-02-11T04:08:40.121Z,42.90
2023-02-11T04:11:08.083Z,31.50
2023-02-11T04:13:36.020Z,33.07
2023-02-11T04:16:04.109Z,37.30
2023-02-11T04:18:32.077Z,33.80
2023-02-11T04:21:00.108Z,29.67
2023-02-11T04:23:29.427Z,36.20
2023-02-11T04:25:57.427Z,40.43
2023-02-11T04:28:26.782Z,29.30
2023-02-11T04:30:54.814Z,30.87
2023-02-11T04:33:23.344Z,33.97
2023-02-11T04:35:51.596Z,47.10
2023-02-11T04:38:19.782Z,45.87
2023-02-11T04:40:49.141Z,37.07
2023-02-11T04:43:17.141Z,45.63
2023-02-11T04:45:45.227Z,35.97
2023-02-11T04:48:13.215Z,45.17
2023-02-11T04:50:41.531Z,68.10
2023-02-11T04:53:09.579Z,32.70
2023-02-11T04:55:37.548Z,31.30
2023-02-11T04:58:07.053Z,35.83
2023-02-11T05:00:35.039Z,40.83
2023-02-11T05:03:03.022Z,38.73
2023-02-11T05:05:30.993Z,40.17
2023-02-11T05:07:59.095Z,37.77
2023-02-11T05:10:27.191Z,40.80
2023-02-11T05:12:56.124Z,36.30
2023-02-11T05:15:25.546Z,33.40
2023-02-11T05:17:53.770Z,45.20
2023-02-11T05:20:22.409Z,49.13
2023-02-11T05:22:50.387Z,38.93
2023-02-11T05:25:18.545Z,41.73
2023-02-11T05:27:46.558Z,34.37
2023-02-11T05:30:15.140Z,50.53
2023-02-11T05:32:44.542Z,46.53
2023-02-11T05:35:12.573Z,40.37
2023-02-11T05:37:41.113Z,42.40
2023-02-11T05:40:10.220Z,44.13
2023-02-11T05:42:38.212Z,39.00
2023-02-11T05:45:08.371Z,32.33
2023-02-11T05:47:36.339Z,43.33
2023-02-11T05:50:06.440Z,39.03
2023-02-11T05:52:34.417Z,45.13
2023-02-11T05:55:02.560Z,28.60
2023-02-11T05:57:30.581Z,40.90
2023-02-11T05:59:58.600Z,34.57
2023-02-11T06:02:26.703Z,42.27
2023-02-11T06:04:54.730Z,34.33
2023-02-11T06:07:24.078Z,39.80
2023-02-11T06:09:52.047Z,44.17
2023-02-11T06:12:20.126Z,43.33
2023-02-11T06:14:48.118Z,37.33
2023-02-11T06:17:16.135Z,41.10
2023-02-11T06:19:44.426Z,39.83
2023-02-11T06:22:12.606Z,32.20
2023-02-11T06:25:00.400Z,37.40
2023-02-11T06:27:29.342Z,42.90
2023-02-11T06:29:57.496Z,44.27
2023-02-11T06:32:42.775Z,41.53
2023-02-11T06:35:12.565Z,40.97
2023-02-11T06:37:41.247Z,35.33
2023-02-11T06:40:11.485Z,34.17
2023-02-11T06:42:39.796Z,42.07
2023-02-11T06:45:10.839Z,33.43
2023-02-11T06:47:39.070Z,44.93
2023-02-11T06:50:10.132Z,39.37
2023-02-11T06:52:38.131Z,40.53
2023-02-11T06:55:06.979Z,33.53
2023-02-11T06:57:36.279Z,39.40
2023-02-11T07:00:05.822Z,40.03
2023-02-11T07:02:34.004Z,36.17
2023-02-11T07:05:02.034Z,42.27
2023-02-11T07:07:32.387Z,36.97
2023-02-11T07:10:03.010Z,34.57
2023-02-11T07:12:31.309Z,39.47
2023-02-11T07:15:00.630Z,42.63
2023-02-11T07:17:28.752Z,38.47
2023-02-11T07:19:56.737Z,34.80
2023-02-11T07:22:24.894Z,33.60
2023-02-11T07:24:52.892Z,39.10
2023-02-11T07:27:20.905Z,40.93
2023-02-11T07:29:48.949Z,33.43
2023-02-11T07:32:18.372Z,39.80
2023-02-11T07:34:47.993Z,38.13
2023-02-11T07:37:16.078Z,45.10
2023-02-11T07:39:44.110Z,41.63
2023-02-11T07:42:12.111Z,31.80
2023-02-11T07:44:40.061Z,34.93
2023-02-11T07:47:08.141Z,35.90
2023-02-11T07:49:37.462Z,36.60
2023-02-11T07:52:05.690Z,43.53
2023-02-11T07:54:33.875Z,42.83
2023-02-11T07:57:01.833Z,42.03
2023-02-11T07:59:29.810Z,43.40
2023-02-11T08:01:57.846Z,33.63
2023-02-11T08:04:25.840Z,41.10
2023-02-11T08:06:59.024Z,42.80
2023-02-11T08:09:27.870Z,38.47
2023-02-11T08:11:55.885Z,42.00
2023-02-11T08:14:25.100Z,46.40
2023-02-11T08:16:53.255Z,35.77
2023-02-11T08:19:21.395Z,35.67
2023-02-11T08:21:49.369Z,37.43
2023-02-11T08:24:18.770Z,41.97
2023-02-11T08:26:46.763Z,35.33
2023-02-11T08:29:17.996Z,44.33
2023-02-11T08:31:48.729Z,39.10
2023-02-11T08:34:18.971Z,38.07
2023-02-11T08:36:48.716Z,41.37
2023-02-11T08:39:21.361Z,43.23
2023-02-11T08:41:51.948Z,43.03
2023-02-11T08:44:21.308Z,40.40
2023-02-11T08:46:50.019Z,49.47
2023-02-11T08:49:18.808Z,31.30
2023-02-11T08:51:47.743Z,43.83
2023-02-11T08:54:16.244Z,51.33
2023-02-11T08:56:45.837Z,44.63
2023-02-11T08:59:22.086Z,46.07
2023-02-11T09:01:50.484Z,44.83
2023-02-11T09:04:18.602Z,55.67
2023-02-11T09:06:46.672Z,45.07
2023-02-11T09:09:16.550Z,41.00
2023-02-11T09:11:46.766Z,43.40
2023-02-11T09:14:20.272Z,42.67
2023-02-11T09:16:49.395Z,46.13
2023-02-11T09:19:18.058Z,51.20
2023-02-11T09:21:46.206Z,37.10
2023-02-11T09:24:14.248Z,42.20
2023-02-11T09:26:44.825Z,35.53
2023-02-11T09:29:13.234Z,48.30
2023-02-11T09:31:41.575Z,59.63
2023-02-11T09:34:11.280Z,54.80
2023-02-11T09:36:41.508Z,40.30
2023-02-11T09:39:14.571Z,40.57
2023-02-11T09:42:30.373Z,39.40
2023-02-11T09:45:00.726Z,51.77
2023-02-11T09:47:33.434Z,244.20
2023-02-11T09:50:06.038Z,107.63
2023-02-11T09:52:40.721Z,55.93
2023-02-11T09:55:20.678Z,70.30
2023-02-11T09:57:50.542Z,72.87
2023-02-11T10:00:26.149Z,146.67
2023-02-11T10:03:20.056Z,55.73
2023-02-11T10:06:05.945Z,87.83
2023-02-11T10:08:42.957Z,54.80
2023-02-11T10:11:31.260Z,74.47
2023-02-11T10:14:13.473Z,59.63
2023-02-11T10:16:59.195Z,41.10
2023-02-11T10:19:58.206Z,34.27
2023-02-11T10:22:33.041Z,31.97
2023-02-11T10:25:01.997Z,43.30
2023-02-11T10:27:34.212Z,50.33
2023-02-11T10:30:11.151Z,41.47
2023-02-11T10:32:46.822Z,43.40
2023-02-11T10:35:19.371Z,35.20
2023-02-11T10:37:47.524Z,30.77
2023-02-11T10:40:18.650Z,37.33
2023-02-11T10:42:53.626Z,38.10
2023-02-11T10:45:33.210Z,44.83
2023-02-11T10:48:01.987Z,47.40
2023-02-11T10:50:34.873Z,39.60
2023-02-11T10:53:20.999Z,36.50
2023-02-11T10:55:56.047Z,35.23
2023-02-11T10:58:27.624Z,45.20
2023-02-11T11:01:00.152Z,40.70
2023-02-11T11:03:30.728Z,40.60
2023-02-11T11:06:01.887Z,42.67
2023-02-11T11:08:41.950Z,28.30
2023-02-11T11:11:13.413Z,31.33
2023-02-11T11:13:43.367Z,32.13
2023-02-11T11:16:23.488Z,33.40
2023-02-11T11:18:55.030Z,28.67
2023-02-11T11:21:26.127Z,28.83
2023-02-11T11:23:58.699Z,39.97
2023-02-11T11:26:29.502Z,30.50
2023-02-11T11:29:02.744Z,24.13
2023-02-11T11:31:37.846Z,35.00
2023-02-11T11:34:23.789Z,25.03
2023-02-11T11:36:52.225Z,32.07
2023-02-11T11:39:25.206Z,29.90
2023-02-11T11:41:57.374Z,33.57
2023-02-11T11:44:32.789Z,29.90
2023-02-11T11:47:27.000Z,31.73
2023-02-11T11:50:26.652Z,32.90
2023-02-11T11:53:03.961Z,27.00
2023-02-11T11:55:39.140Z,22.83
2023-02-11T11:58:15.333Z,25.40
2023-02-11T12:00:54.740Z,34.73
2023-02-11T12:04:02.560Z,20.23
2023-02-11T12:06:41.050Z,18.20
2023-02-11T12:09:22.954Z,19.77
2023-02-11T12:12:26.644Z,19.77
2023-02-11T12:15:08.696Z,20.00
2023-02-11T12:17:53.370Z,20.13
2023-02-11T12:20:33.798Z,19.07
2023-02-11T12:23:20.281Z,17.73
2023-02-11T12:25:56.168Z,13.80
2023-02-11T12:28:38.470Z,22.30
2023-02-11T12:31:37.099Z,12.80
2023-02-11T12:34:40.649Z,14.37
2023-02-11T12:37:25.885Z,17.50
2023-02-11T12:40:02.541Z,16.17
2023-02-11T12:43:11.066Z,18.30
2023-02-11T12:46:23.765Z,10.80
2023-02-11T12:49:20.145Z,22.17
2023-02-11T12:52:04.076Z,15.47
2023-02-11T12:54:39.820Z,17.03
2023-02-11T12:57:14.990Z,13.20
2023-02-11T12:59:55.324Z,10.77
2023-02-11T13:02:36.522Z,11.50
2023-02-11T13:05:19.830Z,8.70
2023-02-11T13:07:48.912Z,10.87
2023-02-11T13:10:30.049Z,13.00
2023-02-11T13:13:18.349Z,13.47
2023-02-11T13:15:52.432Z,7.83
2023-02-11T13:18:45.914Z,12.30
2023-02-11T13:21:34.875Z,12.30
2023-02-11T13:24:18.748Z,11.83
2023-02-11T13:26:59.069Z,10.93
2023-02-11T13:29:58.852Z,10.90
2023-02-11T13:32:26.856Z,13.37
2023-02-11T13:34:58.837Z,12.80
2023-02-11T13:37:31.779Z,12.77
2023-02-11T13:40:02.407Z,14.90
2023-02-11T13:42:34.285Z,11.33
2023-02-11T13:45:02.910Z,10.10
2023-02-11T13:47:34.942Z,8.37
2023-02-11T13:50:08.253Z,10.67
2023-02-11T13:52:38.686Z,9.73
2023-02-11T13:55:16.366Z,11.57
2023-02-11T13:57:45.701Z,18.27
2023-02-11T14:00:51.246Z,15.63
2023-02-11T14:03:51.735Z,11.00
2023-02-11T14:07:02.055Z,9.10
2023-02-11T14:09:42.639Z,14.07
2023-02-11T14:12:36.694Z,8.47
2023-02-11T14:15:28.674Z,13.00
2023-02-11T14:17:56.667Z,10.03
2023-02-11T14:20:39.777Z,12.97
2023-02-11T14:23:08.118Z,9.07
2023-02-11T14:25:37.096Z,14.00
2023-02-11T14:28:18.811Z,8.87
2023-02-11T14:30:59.643Z,9.07
2023-02-11T14:33:54.404Z,11.63
2023-02-11T14:36:54.592Z,19.73
2023-02-11T14:39:38.619Z,91.37
2023-02-11T14:42:07.109Z,21.17
2023-02-11T14:44:36.172Z,17.60
2023-02-11T14:47:06.518Z,16.40
2023-02-11T14:49:37.459Z,19.70
2023-02-11T14:52:17.501Z,13.73
2023-02-11T14:54:47.073Z,14.53
2023-02-11T14:57:18.928Z,18.40
2023-02-11T15:00:02.226Z,14.83
2023-02-11T15:02:35.959Z,11.17
2023-02-11T15:05:20.937Z,9.57
2023-02-11T15:07:51.687Z,11.00
2023-02-11T15:10:30.191Z,24.17
2023-02-11T15:13:00.798Z,12.37
2023-02-11T15:15:30.647Z,18.20
2023-02-11T15:18:04.172Z,12.33
2023-02-11T15:20:35.757Z,10.83
2023-02-11T15:23:08.214Z,10.23
2023-02-11T15:25:45.517Z,14.50
2023-02-11T15:28:24.662Z,12.83
2023-02-11T15:31:01.919Z,8.63
2023-02-11T15:33:33.008Z,10.47
2023-02-11T15:36:02.095Z,8.40
2023-02-11T15:38:31.093Z,8.50
2023-02-11T15:41:08.604Z,8.20
2023-02-11T15:43:47.235Z,7.77
2023-02-11T15:46:18.544Z,10.93
2023-02-11T15:48:50.503Z,5.43
2023-02-11T15:51:23.336Z,7.20
2023-02-11T15:53:56.755Z,8.03
2023-02-11T15:56:29.754Z,9.23
2023-02-11T15:59:00.939Z,4.90
2023-02-11T16:01:34.035Z,8.30
2023-02-11T16:04:05.312Z,4.27
2023-02-11T16:06:40.142Z,6.30
2023-02-11T16:09:33.460Z,7.87
2023-02-11T16:12:04.586Z,5.70
2023-02-11T16:14:39.052Z,11.57
2023-02-11T16:17:10.715Z,5.53
2023-02-11T16:19:46.375Z,4.80
2023-02-11T16:22:21.579Z,3.20
2023-02-11T16:24:52.430Z,12.70
2023-02-11T16:27:24.526Z,9.60
2023-02-11T16:29:53.307Z,6.93
2023-02-11T16:32:23.978Z,6.83
2023-02-11T16:34:55.046Z,7.17
2023-02-11T16:37:24.084Z,4.00
2023-02-11T16:39:54.850Z,4.57
2023-02-11T16:42:23.305Z,7.27
2023-02-11T16:44:51.374Z,5.93
2023-02-11T16:47:24.276Z,8.60
2023-02-11T16:49:54.264Z,3.53
2023-02-11T16:52:23.033Z,5.57
2023-02-11T16:54:51.530Z,6.23
2023-02-11T16:57:21.957Z,5.53
2023-02-11T16:59:50.233Z,3.90
2023-02-11T17:02:24.167Z,4.37
2023-02-11T17:04:55.399Z,7.33
2023-02-11T17:07:23.961Z,8.23
2023-02-11T17:09:52.616Z,7.13
2023-02-11T17:12:20.892Z,5.87
2023-02-11T17:14:49.070Z,5.70
2023-02-11T17:17:17.484Z,4.27
2023-02-11T17:19:47.807Z,8.20
2023-02-11T17:22:17.217Z,5.10
2023-02-11T17:24:45.363Z,3.00
2023-02-11T17:27:13.906Z,12.20
2023-02-11T17:29:42.042Z,5.20
2023-02-11T17:32:10.173Z,4.17
2023-02-11T17:34:38.356Z,6.90
2023-02-11T17:37:09.135Z,7.60
2023-02-11T17:39:40.971Z,9.13
2023-02-11T17:42:09.525Z,6.20
2023-02-11T17:44:38.758Z,3.07
2023-02-11T17:47:07.844Z,3.77
2023-02-11T17:49:36.216Z,3.70
2023-02-11T17:52:04.573Z,3.87
2023-02-11T17:54:32.745Z,5.97
2023-02-11T17:57:02.140Z,4.50
2023-02-11T17:59:35.226Z,3.33
2023-02-11T18:02:04.859Z,3.63
2023-02-11T18:04:33.371Z,6.27
2023-02-11T18:07:01.507Z,4.50
2023-02-11T18:09:29.887Z,7.37
2023-02-11T18:12:00.620Z,6.17
2023-02-11T18:14:30.152Z,4.90
2023-02-11T18:16:58.248Z,7.10
2023-02-11T18:19:30.395Z,7.60
2023-02-11T18:22:04.349Z,9.13
2023-02-11T18:24:33.257Z,8.77
2023-02-11T18:27:01.510Z,5.47
2023-02-11T18:29:31.538Z,6.53
2023-02-11T18:32:00.016Z,8.10
2023-02-11T18:34:29.628Z,6.77
2023-02-11T18:36:58.639Z,10.50
2023-02-11T18:39:26.746Z,6.30
2023-02-11T18:41:56.805Z,7.40
2023-02-11T18:44:25.079Z,8.73
2023-02-11T18:46:55.103Z,9.00
2023-02-11T18:49:23.159Z,9.93
2023-02-11T18:51:51.229Z,4.97
2023-02-11T18:54:19.466Z,5.90
2023-02-11T18:56:47.527Z,6.87
2023-02-11T18:59:15.571Z,8.00
2023-02-11T19:01:46.779Z,5.00
2023-02-11T19:04:19.837Z,4.37
2023-02-11T19:06:50.806Z,5.63
2023-02-11T19:09:20.950Z,4.83
2023-02-11T19:11:49.788Z,5.30
2023-02-11T19:14:23.748Z,7.63
2023-02-11T19:16:53.852Z,6.80
2023-02-11T19:19:24.714Z,9.27
2023-02-11T19:21:53.437Z,6.70
2023-02-11T19:24:23.414Z,28.43
2023-02-11T19:26:53.699Z,26.83
2023-02-11T19:29:21.940Z,14.95
2023-02-11T19:31:50.275Z,94.97
2023-02-11T19:34:21.534Z,56.97
2023-02-11T19:36:52.082Z,145.07
2023-02-11T19:39:20.076Z,57.27
2023-02-11T19:41:48.334Z,19.00
2023-02-11T19:44:16.656Z,19.40
2023-02-11T19:46:45.944Z,13.67
2023-02-11T19:49:16.796Z,18.30
2023-02-11T19:51:45.026Z,27.90
2023-02-11T19:54:14.631Z,28.77
2023-02-11T19:56:42.908Z,57.83
2023-02-11T19:59:11.279Z,75.13
2023-02-11T20:01:39.651Z,48.10
2023-02-11T20:04:08.147Z,35.10
2023-02-11T20:06:37.201Z,23.90
2023-02-11T20:09:10.913Z,20.80
2023-02-11T20:11:41.499Z,25.40
2023-02-11T20:14:10.786Z,15.43
2023-02-11T20:16:48.203Z,13.80
2023-02-11T20:19:18.916Z,9.23
2023-02-11T20:21:48.682Z,13.87
2023-02-11T20:24:17.176Z,11.27
2023-02-11T20:26:49.297Z,11.50
2023-02-11T20:29:18.461Z,14.43
2023-02-11T20:31:47.006Z,16.40
2023-02-11T20:34:17.473Z,13.43
2023-02-11T20:36:51.556Z,14.97
2023-02-11T20:39:22.646Z,12.97
2023-02-11T20:41:56.507Z,9.83
2023-02-11T20:44:25.097Z,14.23
2023-02-11T20:46:54.079Z,15.43
2023-02-11T20:49:24.795Z,10.03
2023-02-11T20:51:53.504Z,17.93
2023-02-11T20:54:23.397Z,20.30
2023-02-11T20:56:55.271Z,18.03
2023-02-11T20:59:23.717Z,15.43
2023-02-11T21:01:55.266Z,14.57
2023-02-11T21:04:27.715Z,23.80
2023-02-11T21:06:59.995Z,12.90
2023-02-11T21:09:33.913Z,15.50
2023-02-11T21:12:07.741Z,16.20
2023-02-11T21:14:35.953Z,24.40
2023-02-11T21:17:04.230Z,24.17
2023-02-11T21:19:32.272Z,13.60
2023-02-11T21:22:01.755Z,17.53
2023-02-11T21:24:30.922Z,16.53
2023-02-11T21:26:59.208Z,16.43
2023-02-11T21:29:28.544Z,19.67
2023-02-11T21:31:56.706Z,18.70
2023-02-11T21:34:25.777Z,18.40
2023-02-11T21:36:54.252Z,18.43
2023-02-11T21:39:22.283Z,15.47
2023-02-11T21:41:51.498Z,16.70
2023-02-11T21:44:20.054Z,18.53
2023-02-11T21:46:50.469Z,16.87
2023-02-11T21:49:19.660Z,21.50
2023-02-11T21:51:47.659Z,27.97
2023-02-11T21:54:15.863Z,17.17
2023-02-11T21:56:43.825Z,16.37
2023-02-11T21:59:14.136Z,17.33
2023-02-11T22:01:42.382Z,22.93
2023-02-11T22:04:12.362Z,21.80
2023-02-11T22:06:40.555Z,24.40
2023-02-11T22:09:10.987Z,18.50
2023-02-11T22:11:40.833Z,21.00
2023-02-11T22:14:09.111Z,27.60
2023-02-11T22:16:43.225Z,22.73
2023-02-11T22:19:15.750Z,27.07
2023-02-11T22:21:44.422Z,22.77
2023-02-11T22:24:12.715Z,24.73
2023-02-11T22:26:40.912Z,23.50
2023-02-11T22:29:09.335Z,23.00
2023-02-11T22:31:37.605Z,22.77
2023-02-11T22:34:06.836Z,26.03
2023-02-11T22:36:39.033Z,22.30
2023-02-11T22:39:09.591Z,27.47
2023-02-11T22:41:39.399Z,19.47
2023-02-11T22:44:07.436Z,22.63
2023-02-11T22:46:35.905Z,26.27
2023-02-11T22:49:04.309Z,22.27
2023-02-11T22:51:33.107Z,22.40
2023-02-11T22:54:06.789Z,25.50
2023-02-11T22:56:36.105Z,22.87
2023-02-11T22:59:06.764Z,20.43
2023-02-11T23:01:35.735Z,23.03
2023-02-11T23:04:06.884Z,21.93
2023-02-11T23:06:35.291Z,25.87
2023-02-11T23:09:07.090Z,20.53
2023-02-11T23:11:35.236Z,20.17
2023-02-11T23:14:04.017Z,23.57
2023-02-11T23:16:34.749Z,19.73
2023-02-11T23:19:06.045Z,23.43
2023-02-11T23:21:39.837Z,25.37
2023-02-11T23:24:12.872Z,24.67
2023-02-11T23:26:42.438Z,28.43
2023-02-11T23:29:11.667Z,23.20
2023-02-11T23:31:43.790Z,23.10
2023-02-11T23:34:12.393Z,22.97
2023-02-11T23:36:42.425Z,32.13
2023-02-11T23:39:15.441Z,26.93
2023-02-11T23:41:43.736Z,27.13
2023-02-11T23:44:13.909Z,21.93
2023-02-11T23:46:41.878Z,18.23
2023-02-11T23:49:10.073Z,32.67
2023-02-11T23:51:38.051Z,36.57
2023-02-11T23:54:06.117Z,22.17
2023-02-11T23:56:36.817Z,19.87
2023-02-11T23:59:04.872Z,24.30
